createdAt,value
2023-05-01T00:02:01.986Z,9.96
2023-05-01T00:04:34.941Z,9.88
2023-05-01T00:07:03.850Z,9.82
2023-05-01T00:09:33.396Z,9.43
2023-05-01T00:12:03.177Z,9.39
2023-05-01T00:14:32.223Z,9.09
2023-05-01T00:17:01.174Z,9.09
2023-05-01T00:19:30.005Z,9.16
2023-05-01T00:22:00.243Z,9.12
2023-05-01T00:24:29.136Z,9.01
2023-05-01T00:26:58.273Z,9.08
2023-05-01T00:29:27.916Z,9.07
2023-05-01T00:31:56.985Z,8.78
2023-05-01T00:34:25.918Z,9.02
2023-05-01T00:36:54.717Z,9.00
2023-05-01T00:39:24.999Z,9.05
2023-05-01T00:41:55.010Z,9.08
2023-05-01T00:44:23.912Z,9.14
2023-05-01T00:46:52.922Z,8.29
2023-05-01T00:49:21.956Z,7.30
2023-05-01T00:51:54.337Z,7.82
2023-05-01T00:54:25.343Z,7.88
2023-05-01T00:56:54.765Z,7.87
2023-05-01T00:59:23.989Z,7.77
2023-05-01T01:01:54.945Z,7.78
2023-05-01T01:04:25.123Z,7.99
2023-05-01T01:07:00.193Z,8.06
2023-05-01T01:09:43.689Z,8.22
2023-05-01T01:12:22.951Z,8.24
2023-05-01T01:14:59.556Z,8.29
2023-05-01T01:17:33.449Z,8.36
2023-05-01T01:20:26.032Z,8.51
2023-05-01T01:23:06.836Z,8.28
2023-05-01T01:26:02.782Z,7.92
2023-05-01T01:28:43.775Z,7.91
2023-05-01T01:31:18.788Z,8.06
2023-05-01T01:34:02.033Z,8.12
2023-05-01T01:36:42.081Z,8.29
2023-05-01T01:39:17.389Z,8.01
2023-05-01T01:41:51.450Z,7.92
2023-05-01T01:44:26.873Z,7.81
2023-05-01T01:46:56.235Z,7.70
2023-05-01T01:49:29.051Z,7.77
2023-05-01T01:52:00.167Z,7.51
2023-05-01T01:54:36.613Z,7.51
2023-05-01T01:57:08.948Z,7.67
2023-05-01T01:59:37.841Z,7.85
2023-05-01T02:02:10.085Z,7.97
2023-05-01T02:04:43.527Z,8.11
2023-05-01T02:07:15.379Z,8.23
2023-05-01T02:09:46.156Z,7.98
2023-05-01T02:12:17.880Z,7.98
2023-05-01T02:14:48.983Z,7.78
2023-05-01T02:17:20.144Z,7.91
2023-05-01T02:19:53.231Z,8.05
2023-05-01T02:22:23.254Z,7.91
2023-05-01T02:24:53.533Z,7.66
2023-05-01T02:27:27.769Z,7.77
2023-05-01T02:29:56.847Z,7.74
2023-05-01T02:32:28.668Z,7.58
2023-05-01T02:35:00.001Z,7.61
2023-05-01T02:37:31.346Z,7.58
2023-05-01T02:40:02.058Z,7.41
2023-05-01T02:42:32.611Z,7.53
2023-05-01T02:45:04.631Z,7.68
2023-05-01T02:47:38.306Z,7.57
2023-05-01T02:50:09.920Z,7.43
2023-05-01T02:52:39.653Z,7.36
2023-05-01T02:55:34.690Z,7.43
2023-05-01T02:58:04.028Z,7.49
2023-05-01T03:00:32.910Z,7.31
2023-05-01T03:03:02.032Z,7.42
2023-05-01T03:05:32.208Z,7.43
2023-05-01T03:08:01.066Z,7.53
2023-05-01T03:10:30.492Z,7.73
2023-05-01T03:12:59.366Z,7.83
2023-05-01T03:15:29.285Z,7.65
2023-05-01T03:17:58.175Z,7.54
2023-05-01T03:20:27.597Z,7.62
2023-05-01T03:22:59.388Z,7.66
2023-05-01T03:25:28.428Z,7.72
2023-05-01T03:27:57.260Z,7.76
2023-05-01T03:30:26.697Z,7.69
2023-05-01T03:32:56.406Z,7.83
2023-05-01T03:35:31.433Z,7.86
2023-05-01T03:38:02.267Z,7.86
2023-05-01T03:41:09.369Z,7.92
2023-05-01T03:43:57.157Z,7.44
2023-05-01T03:46:40.022Z,7.66
2023-05-01T03:49:12.792Z,7.48
2023-05-01T03:51:47.825Z,7.64
2023-05-01T03:54:18.139Z,7.67
2023-05-01T03:57:14.736Z,7.80
2023-05-01T03:59:44.880Z,7.67
2023-05-01T04:02:15.039Z,7.88
2023-05-01T04:04:45.209Z,7.92
2023-05-01T04:07:14.898Z,8.41
2023-05-01T04:09:45.211Z,8.80
2023-05-01T04:12:15.123Z,8.43
2023-05-01T04:14:44.776Z,8.66
2023-05-01T04:17:14.383Z,8.70
2023-05-01T04:19:43.241Z,8.96
2023-05-01T04:22:12.179Z,8.58
2023-05-01T04:24:42.188Z,8.97
2023-05-01T04:27:12.507Z,8.81
2023-05-01T04:29:41.883Z,9.30
2023-05-01T04:32:11.084Z,9.79
2023-05-01T04:34:40.261Z,10.06
2023-05-01T04:37:10.124Z,9.55
2023-05-01T04:39:39.630Z,8.90
2023-05-01T04:42:09.301Z,9.34
2023-05-01T04:44:40.363Z,9.43
2023-05-01T04:47:09.543Z,9.65
2023-05-01T04:49:38.483Z,10.34
2023-05-01T04:52:07.918Z,10.97
2023-05-01T04:54:51.442Z,10.90
2023-05-01T04:57:21.270Z,10.82
2023-05-01T04:59:52.883Z,10.48
2023-05-01T05:02:21.843Z,10.34
2023-05-01T05:04:51.075Z,9.59
2023-05-01T05:07:19.918Z,9.74
2023-05-01T05:10:12.125Z,9.92
2023-05-01T05:12:42.993Z,9.98
2023-05-01T05:15:13.705Z,9.86
2023-05-01T05:17:42.687Z,10.49
2023-05-01T05:20:12.131Z,11.00
2023-05-01T05:22:41.072Z,10.53
2023-05-01T05:25:22.685Z,10.24
2023-05-01T05:27:51.560Z,10.12
2023-05-01T05:30:22.585Z,10.28
2023-05-01T05:32:51.582Z,10.57
2023-05-01T05:35:22.994Z,10.68
2023-05-01T05:37:52.184Z,10.50
2023-05-01T05:40:21.124Z,11.10
2023-05-01T05:42:56.747Z,12.11
2023-05-01T05:45:29.427Z,12.12
2023-05-01T05:47:58.994Z,11.73
2023-05-01T05:50:29.906Z,11.84
2023-05-01T05:52:58.892Z,11.83
2023-05-01T05:55:29.153Z,11.87
2023-05-01T05:58:06.049Z,11.93
2023-05-01T06:00:36.471Z,12.07
2023-05-01T06:03:07.701Z,11.97
2023-05-01T06:05:37.969Z,12.06
2023-05-01T06:08:06.946Z,11.93
2023-05-01T06:10:36.236Z,11.82
2023-05-01T06:13:08.329Z,12.57
2023-05-01T06:15:46.266Z,12.80
2023-05-01T06:18:15.321Z,12.90
2023-05-01T06:20:44.344Z,12.98
2023-05-01T06:23:13.921Z,12.91
2023-05-01T06:25:49.823Z,13.27
2023-05-01T06:28:18.692Z,13.52
2023-05-01T06:30:48.957Z,13.36
2023-05-01T06:33:19.929Z,14.05
2023-05-01T06:35:56.345Z,15.14
2023-05-01T06:38:26.927Z,14.81
2023-05-01T06:40:56.616Z,14.45
2023-05-01T06:43:28.111Z,14.01
2023-05-01T06:45:58.539Z,14.45
2023-05-01T06:48:27.443Z,14.70
2023-05-01T06:50:57.162Z,14.94
2023-05-01T06:53:25.964Z,14.41
2023-05-01T06:55:54.789Z,14.02
2023-05-01T06:58:24.593Z,14.19
2023-05-01T07:00:55.652Z,13.89
2023-05-01T07:03:27.742Z,13.27
2023-05-01T07:05:56.745Z,13.87
2023-05-01T07:08:28.221Z,14.11
2023-05-01T07:10:57.166Z,14.46
2023-05-01T07:13:26.435Z,14.46
2023-05-01T07:15:55.462Z,14.05
2023-05-01T07:18:25.919Z,14.55
2023-05-01T07:20:54.775Z,15.85
2023-05-01T07:23:23.767Z,15.27
2023-05-01T07:25:53.724Z,15.68
2023-05-01T07:28:22.963Z,15.55
2023-05-01T07:30:51.861Z,15.43
2023-05-01T07:33:20.778Z,14.70
2023-05-01T07:35:51.183Z,14.58
2023-05-01T07:38:20.181Z,14.96
2023-05-01T07:40:49.111Z,14.77
2023-05-01T07:43:17.899Z,14.88
2023-05-01T07:45:56.756Z,15.07
2023-05-01T07:48:26.195Z,14.85
2023-05-01T07:50:56.743Z,15.33
2023-05-01T07:53:25.657Z,16.03
2023-05-01T07:55:54.509Z,16.39
2023-05-01T07:58:23.288Z,16.41
2023-05-01T08:00:52.152Z,16.54
2023-05-01T08:03:21.101Z,16.28
2023-05-01T08:05:50.161Z,16.24
2023-05-01T08:08:21.387Z,16.12
2023-05-01T08:10:50.237Z,15.87
2023-05-01T08:13:19.387Z,16.10
2023-05-01T08:15:49.192Z,16.18
2023-05-01T08:18:21.270Z,16.38
2023-05-01T08:20:50.475Z,16.45
2023-05-01T08:23:20.716Z,16.69
2023-05-01T08:25:51.709Z,18.12
2023-05-01T08:28:21.516Z,19.08
2023-05-01T08:30:50.450Z,19.58
2023-05-01T08:33:20.073Z,18.68
2023-05-01T08:35:49.728Z,18.53
2023-05-01T08:38:19.992Z,18.43
2023-05-01T08:40:53.493Z,18.03
2023-05-01T08:43:24.318Z,17.98
2023-05-01T08:45:55.975Z,18.11
2023-05-01T08:48:27.066Z,19.29
2023-05-01T08:51:00.036Z,20.40
2023-05-01T08:53:41.815Z,19.37
2023-05-01T08:56:13.768Z,20.40
2023-05-01T08:58:46.032Z,19.68
2023-05-01T09:01:16.767Z,19.01
2023-05-01T09:03:47.707Z,19.75
2023-05-01T09:06:17.540Z,19.74
2023-05-01T09:08:47.753Z,19.42
2023-05-01T09:11:16.590Z,18.36
2023-05-01T09:13:45.450Z,17.81
2023-05-01T09:16:14.627Z,17.94
2023-05-01T09:18:43.618Z,18.32
2023-05-01T09:21:13.272Z,18.93
2023-05-01T09:23:42.272Z,20.07
2023-05-01T09:26:12.625Z,21.44
2023-05-01T09:28:45.596Z,22.13
2023-05-01T09:31:25.006Z,22.98
2023-05-01T09:33:58.017Z,23.03
2023-05-01T09:36:28.383Z,22.09
2023-05-01T09:38:57.545Z,20.35
2023-05-01T09:41:28.466Z,19.31
2023-05-01T09:43:58.455Z,18.51
2023-05-01T09:46:28.092Z,17.81
2023-05-01T09:48:58.887Z,17.07
2023-05-01T09:51:29.185Z,16.98
2023-05-01T09:53:59.242Z,17.28
2023-05-01T09:56:31.459Z,17.49
2023-05-01T09:59:16.423Z,17.70
2023-05-01T10:01:48.261Z,17.50
2023-05-01T10:04:17.171Z,17.03
2023-05-01T10:06:46.192Z,16.32
2023-05-01T10:09:28.466Z,15.84
2023-05-01T10:11:59.502Z,15.52
2023-05-01T10:14:29.806Z,14.98
2023-05-01T10:16:59.432Z,14.61
2023-05-01T10:19:28.454Z,14.59
2023-05-01T10:21:58.579Z,14.71
2023-05-01T10:24:27.537Z,14.55
2023-05-01T10:26:59.003Z,14.28
2023-05-01T10:29:30.617Z,14.31
2023-05-01T10:31:59.991Z,14.09
2023-05-01T10:34:30.941Z,13.77
2023-05-01T10:37:03.931Z,14.01
2023-05-01T10:39:33.790Z,13.82
2023-05-01T10:42:11.215Z,13.89
2023-05-01T10:44:40.321Z,13.86
2023-05-01T10:47:46.760Z,14.24
2023-05-01T10:50:16.332Z,14.38
2023-05-01T10:53:20.246Z,14.47
2023-05-01T10:55:50.411Z,14.77
2023-05-01T10:59:04.548Z,15.02
2023-05-01T11:01:36.761Z,15.22
2023-05-01T11:04:08.321Z,15.11
2023-05-01T11:06:38.234Z,15.09
2023-05-01T11:09:39.044Z,15.36
2023-05-01T11:12:09.420Z,15.50
2023-05-01T11:15:07.868Z,15.52
2023-05-01T11:17:53.312Z,15.11
2023-05-01T11:20:48.433Z,14.86
2023-05-01T11:23:21.790Z,14.93
2023-05-01T11:25:54.186Z,14.72
2023-05-01T11:28:23.646Z,14.78
2023-05-01T11:30:52.982Z,14.99
2023-05-01T11:33:27.614Z,15.08
2023-05-01T11:36:03.390Z,15.13
2023-05-01T11:38:32.292Z,15.07
2023-05-01T11:41:04.159Z,14.89
2023-05-01T11:43:33.203Z,14.94
2023-05-01T11:46:04.982Z,14.88
2023-05-01T11:48:35.623Z,14.80
2023-05-01T11:51:14.088Z,14.52
2023-05-01T11:53:42.931Z,14.78
2023-05-01T11:56:26.500Z,14.90
2023-05-01T11:58:57.600Z,15.13
2023-05-01T12:01:36.106Z,15.24
2023-05-01T12:04:08.149Z,15.40
2023-05-01T12:06:40.639Z,15.48
2023-05-01T12:09:11.006Z,15.59
2023-05-01T12:11:40.952Z,15.94
2023-05-01T12:14:10.936Z,16.32
2023-05-01T12:16:42.390Z,16.76
2023-05-01T12:19:15.059Z,16.73
2023-05-01T12:21:44.002Z,16.98
2023-05-01T12:24:15.114Z,17.01
2023-05-01T12:26:44.573Z,16.83
2023-05-01T12:29:13.796Z,16.66
2023-05-01T12:31:48.412Z,16.27
2023-05-01T12:34:19.118Z,16.65
2023-05-01T12:36:55.137Z,16.97
2023-05-01T12:39:24.545Z,17.25
2023-05-01T12:41:54.737Z,17.67
2023-05-01T12:44:24.831Z,17.99
2023-05-01T12:47:00.347Z,18.44
2023-05-01T12:49:32.670Z,18.64
2023-05-01T12:52:03.710Z,18.62
2023-05-01T12:54:34.127Z,18.90
2023-05-01T12:57:07.926Z,19.06
2023-05-01T12:59:38.091Z,19.06
2023-05-01T13:02:08.581Z,18.82
2023-05-01T13:04:38.974Z,18.57
2023-05-01T13:07:13.074Z,18.52
2023-05-01T13:09:53.048Z,18.75
2023-05-01T13:12:22.677Z,18.85
2023-05-01T13:14:52.467Z,18.87
2023-05-01T13:17:25.719Z,18.82
2023-05-01T13:19:57.604Z,18.93
2023-05-01T13:22:31.650Z,19.14
2023-05-01T13:25:01.358Z,19.50
2023-05-01T13:27:30.623Z,19.44
2023-05-01T13:30:01.077Z,19.45
2023-05-01T13:32:30.370Z,19.87
2023-05-01T13:35:02.089Z,20.08
2023-05-01T13:37:30.909Z,20.29
2023-05-01T13:40:00.002Z,20.68
2023-05-01T13:42:29.137Z,21.18
2023-05-01T13:44:59.239Z,21.28
2023-05-01T13:47:28.208Z,21.49
2023-05-01T13:49:57.548Z,21.84
2023-05-01T13:52:28.162Z,22.19
2023-05-01T13:54:57.664Z,21.91
2023-05-01T13:57:26.856Z,21.28
2023-05-01T13:59:55.730Z,20.93
2023-05-01T14:02:28.998Z,21.00
2023-05-01T14:05:00.139Z,21.40
2023-05-01T14:07:31.223Z,21.10
2023-05-01T14:10:00.888Z,21.84
2023-05-01T14:12:31.519Z,22.31
2023-05-01T14:15:01.397Z,22.05
2023-05-01T14:17:33.718Z,21.57
2023-05-01T14:20:04.925Z,21.46
2023-05-01T14:22:43.373Z,21.90
2023-05-01T14:25:24.360Z,22.23
2023-05-01T14:27:53.933Z,22.41
2023-05-01T14:30:33.430Z,22.13
2023-05-01T14:33:03.418Z,21.74
2023-05-01T14:35:32.627Z,21.63
2023-05-01T14:38:10.095Z,21.94
2023-05-01T14:40:41.833Z,21.74
2023-05-01T14:43:11.955Z,21.83
2023-05-01T14:45:43.157Z,22.14
2023-05-01T14:48:12.865Z,22.84
2023-05-01T14:50:41.683Z,22.63
2023-05-01T14:53:12.557Z,23.27
2023-05-01T14:55:42.976Z,22.86
2023-05-01T14:58:11.839Z,23.21
2023-05-01T15:00:40.723Z,23.24
2023-05-01T15:03:09.959Z,23.41
2023-05-01T15:05:41.784Z,22.65
2023-05-01T15:08:11.974Z,22.46
2023-05-01T15:10:41.791Z,22.31
2023-05-01T15:13:10.616Z,22.52
2023-05-01T15:15:39.419Z,22.75
2023-05-01T15:18:08.337Z,23.32
2023-05-01T15:20:37.703Z,23.03
2023-05-01T15:23:06.834Z,22.77
2023-05-01T15:25:37.110Z,22.88
2023-05-01T15:28:06.130Z,23.05
2023-05-01T15:30:34.964Z,23.42
2023-05-01T15:33:05.000Z,23.37
2023-05-01T15:35:34.199Z,23.38
2023-05-01T15:38:04.001Z,22.57
2023-05-01T15:40:33.598Z,22.51
2023-05-01T15:43:06.518Z,22.52
2023-05-01T15:45:35.708Z,22.14
2023-05-01T15:48:05.170Z,21.91
2023-05-01T15:50:34.067Z,21.57
2023-05-01T15:53:03.466Z,21.30
2023-05-01T15:55:32.532Z,20.87
2023-05-01T15:58:02.707Z,20.81
2023-05-01T16:00:35.835Z,20.04
2023-05-01T16:03:04.984Z,19.12
2023-05-01T16:05:34.014Z,19.13
2023-05-01T16:08:03.601Z,18.87
2023-05-01T16:10:36.908Z,18.70
2023-05-01T16:13:06.905Z,18.67
2023-05-01T16:15:38.072Z,18.77
2023-05-01T16:18:07.464Z,18.65
2023-05-01T16:20:42.489Z,18.16
2023-05-01T16:23:12.555Z,17.86
2023-05-01T16:25:43.741Z,17.95
2023-05-01T16:28:12.957Z,18.11
2023-05-01T16:30:46.353Z,18.25
2023-05-01T16:33:19.052Z,18.27
2023-05-01T16:35:49.680Z,18.35
2023-05-01T16:38:19.303Z,18.31
2023-05-01T16:40:49.232Z,18.23
2023-05-01T16:43:18.167Z,18.22
2023-05-01T16:45:48.519Z,18.16
2023-05-01T16:48:22.414Z,17.86
2023-05-01T16:50:51.892Z,17.81
2023-05-01T16:53:21.523Z,17.86
2023-05-01T16:55:50.369Z,17.93
2023-05-01T16:58:19.227Z,17.91
2023-05-01T17:00:49.420Z,17.85
2023-05-01T17:03:18.326Z,17.88
2023-05-01T17:05:47.172Z,17.67
2023-05-01T17:08:16.091Z,17.50
2023-05-01T17:10:45.976Z,17.44
2023-05-01T17:13:15.730Z,17.34
2023-05-01T17:15:44.689Z,17.28
2023-05-01T17:18:15.047Z,17.13
2023-05-01T17:20:43.907Z,17.12
2023-05-01T17:23:12.700Z,17.03
2023-05-01T17:25:41.563Z,17.01
2023-05-01T17:28:10.455Z,16.92
2023-05-01T17:30:39.284Z,16.93
2023-05-01T17:33:08.183Z,16.88
2023-05-01T17:35:38.452Z,16.81
2023-05-01T17:38:07.288Z,16.75
2023-05-01T17:40:36.350Z,16.66
2023-05-01T17:43:05.191Z,16.50
2023-05-01T17:45:34.155Z,16.46
2023-05-01T17:48:03.860Z,16.53
2023-05-01T17:50:32.768Z,16.60
2023-05-01T17:53:03.371Z,16.47
2023-05-01T17:55:32.318Z,16.42
2023-05-01T17:58:01.312Z,16.30
2023-05-01T18:00:31.312Z,16.17
2023-05-01T18:03:00.561Z,16.02
2023-05-01T18:05:29.600Z,15.87
2023-05-01T18:07:58.510Z,15.80
2023-05-01T18:10:31.184Z,15.85
2023-05-01T18:13:00.183Z,15.76
2023-05-01T18:15:29.209Z,15.80
2023-05-01T18:17:58.069Z,15.68
2023-05-01T18:20:27.293Z,15.54
2023-05-01T18:22:56.176Z,15.59
2023-05-01T18:25:25.048Z,15.57
2023-05-01T18:27:56.299Z,15.55
2023-05-01T18:30:25.172Z,15.46
2023-05-01T18:32:54.015Z,15.38
2023-05-01T18:35:23.386Z,15.20
2023-05-01T18:37:52.175Z,15.16
2023-05-01T18:40:21.277Z,15.07
2023-05-01T18:42:50.103Z,15.07
2023-05-01T18:45:20.396Z,15.15
2023-05-01T18:47:49.331Z,14.87
2023-05-01T18:50:21.928Z,14.75
2023-05-01T18:52:50.947Z,14.60
2023-05-01T18:55:19.961Z,14.55
2023-05-01T18:57:48.973Z,14.46
2023-05-01T19:00:20.348Z,14.45
2023-05-01T19:02:52.028Z,14.64
2023-05-01T19:05:22.471Z,14.42
2023-05-01T19:07:51.582Z,14.37
2023-05-01T19:10:20.556Z,13.99
2023-05-01T19:12:50.316Z,13.81
2023-05-01T19:15:19.451Z,13.77
2023-05-01T19:17:48.499Z,13.56
2023-05-01T19:20:18.908Z,13.51
2023-05-01T19:22:55.034Z,13.43
2023-05-01T19:25:23.881Z,13.49
2023-05-01T19:27:52.754Z,13.43
2023-05-01T19:30:21.618Z,13.50
2023-05-01T19:32:51.912Z,13.46
2023-05-01T19:35:22.289Z,13.44
2023-05-01T19:37:56.220Z,13.23
2023-05-01T19:40:25.111Z,13.15
2023-05-01T19:42:53.997Z,13.25
2023-05-01T19:45:22.842Z,13.02
2023-05-01T19:47:51.704Z,12.99
2023-05-01T19:50:22.226Z,13.00
2023-05-01T19:52:51.216Z,12.87
2023-05-01T19:55:20.308Z,13.28
2023-05-01T19:57:49.098Z,13.03
2023-05-01T20:00:18.091Z,12.94
2023-05-01T20:02:47.642Z,12.79
2023-05-01T20:05:16.554Z,12.83
2023-05-01T20:07:46.764Z,13.11
2023-05-01T20:10:17.178Z,12.93
2023-05-01T20:12:46.192Z,12.80
2023-05-01T20:15:15.223Z,13.01
2023-05-01T20:17:49.876Z,12.90
2023-05-01T20:20:19.576Z,12.86
2023-05-01T20:22:52.843Z,12.62
2023-05-01T20:25:21.709Z,12.76
2023-05-01T20:27:50.607Z,12.94
2023-05-01T20:30:19.538Z,13.07
2023-05-01T20:32:48.839Z,13.08
2023-05-01T20:35:17.814Z,13.08
2023-05-01T20:37:46.627Z,12.53
2023-05-01T20:40:17.557Z,12.49
2023-05-01T20:42:46.474Z,12.40
2023-05-01T20:45:15.298Z,12.54
2023-05-01T20:47:44.125Z,12.64
2023-05-01T20:50:13.069Z,12.56
2023-05-01T20:52:41.919Z,12.74
2023-05-01T20:55:11.604Z,12.93
2023-05-01T20:57:41.847Z,12.99
2023-05-01T21:00:11.638Z,13.05
2023-05-01T21:02:41.972Z,13.22
2023-05-01T21:05:11.611Z,13.28
2023-05-01T21:07:41.269Z,13.27
2023-05-01T21:10:12.048Z,13.23
2023-05-01T21:12:42.839Z,13.30
2023-05-01T21:15:12.368Z,13.30
2023-05-01T21:17:43.369Z,13.39
2023-05-01T21:20:16.746Z,13.31
2023-05-01T21:22:48.077Z,13.11
2023-05-01T21:25:24.303Z,13.01
2023-05-01T21:27:55.283Z,12.96
2023-05-01T21:30:31.249Z,12.95
2023-05-01T21:33:00.464Z,12.89
2023-05-01T21:35:30.617Z,12.75
2023-05-01T21:37:59.996Z,12.70
2023-05-01T21:40:29.617Z,12.68
2023-05-01T21:43:02.029Z,12.71
2023-05-01T21:45:32.302Z,12.69
2023-05-01T21:48:01.290Z,12.56
2023-05-01T21:50:36.072Z,12.50
2023-05-01T21:53:06.806Z,12.51
2023-05-01T21:55:35.812Z,12.42
2023-05-01T21:58:06.072Z,12.29
2023-05-01T22:00:35.074Z,12.27
2023-05-01T22:03:07.756Z,12.17
2023-05-01T22:05:40.865Z,12.20
2023-05-01T22:08:09.674Z,12.29
2023-05-01T22:10:38.554Z,12.26
2023-05-01T22:13:08.746Z,12.40
2023-05-01T22:15:37.598Z,12.39
2023-05-01T22:18:06.420Z,12.41
2023-05-01T22:20:35.292Z,12.39
2023-05-01T22:23:04.164Z,12.38
2023-05-01T22:25:32.947Z,12.42
2023-05-01T22:28:04.380Z,12.32
2023-05-01T22:30:35.334Z,12.36
2023-05-01T22:33:04.319Z,12.32
2023-05-01T22:35:33.135Z,12.20
2023-05-01T22:38:01.960Z,12.26
2023-05-01T22:40:30.925Z,12.29
2023-05-01T22:42:59.746Z,12.30
2023-05-01T22:45:28.631Z,12.41
2023-05-01T22:47:58.927Z,12.31
2023-05-01T22:50:27.735Z,12.37
2023-05-01T22:52:56.600Z,12.24
2023-05-01T22:55:25.418Z,12.15
2023-05-01T22:57:54.222Z,12.19
2023-05-01T23:00:23.516Z,12.28
2023-05-01T23:02:52.580Z,12.38
2023-05-01T23:05:22.978Z,12.34
2023-05-01T23:07:51.872Z,12.41
2023-05-01T23:10:22.197Z,12.14
2023-05-01T23:12:51.078Z,11.89
2023-05-01T23:15:24.843Z,11.82
2023-05-01T23:17:53.778Z,11.77
2023-05-01T23:20:25.260Z,11.68
2023-05-01T23:22:54.750Z,11.60
2023-05-01T23:25:26.418Z,11.55
2023-05-01T23:27:57.013Z,11.54
2023-05-01T23:30:25.893Z,11.44
2023-05-01T23:32:59.326Z,11.03
2023-05-01T23:35:30.319Z,11.10
2023-05-01T23:37:59.168Z,10.90
2023-05-01T23:40:28.076Z,10.75
2023-05-01T23:42:56.927Z,10.94
2023-05-01T23:45:25.790Z,11.12
2023-05-01T23:47:54.777Z,11.25
2023-05-01T23:50:25.388Z,11.25
2023-05-01T23:52:56.484Z,11.36
2023-05-01T23:55:25.428Z,11.06
2023-05-01T23:57:55.573Z,10.97
